Terminal Aerodrome Forecast
Issued by NWS Wilmington, OH

Current Version | Previous Version | Text Only | Print | Product List | Glossary Off
Versions: 1 2 3 4 5 6 7 8 9 10 11 12 13 14

000
FTUS41 KILN 251740
TAFILN
TAF
KILN 251740Z 2518/2618 26017G28KT P6SM VCSH OVC025
     FM252000 27017G28KT P6SM BKN050
     FM260000 28014KT P6SM BKN050
     FM260600 30010KT P6SM SCT045
     FM261400 22008KT P6SM SCT150=

USA.gov is the U.S. government's official web portal to all federal, state and local government web resources and services.